Time;durP1;ratioP1;P1;durP2;ratioP2;P2;SDS_P1;SDS_P2;PMS_P1;PMS_P2;Temp;Humidity;BMP_temperature;BMP_pressure;BME280_temperature;BME280_humidity;BME280_pressure;Samples;Min_cycle;Max_cycle;Signal;HPM_P1;HPM_P2
2023/05/07 00:02:19;;;;;;;5.80;0.90;;;;;;;7.38;100.00;100483.92;105473;1255;71793;-48
2023/05/07 00:04:46;;;;;;;2.10;0.70;;;;;;;7.35;100.00;100482.36;105389;1254;60532;-48
2023/05/07 00:07:13;;;;;;;5.90;0.80;;;;;;;7.34;100.00;100480.60;105533;1251;60427;-47
2023/05/07 00:09:40;;;;;;;1.90;0.70;;;;;;;7.34;100.00;100481.15;105597;1263;73292;-48
2023/05/07 00:12:07;;;;;;;1.70;0.80;;;;;;;7.32;100.00;100473.51;105669;1256;71487;-46
2023/05/07 00:14:33;;;;;;;4.60;0.70;;;;;;;7.31;100.00;100473.56;105549;1254;71241;-48
2023/05/07 00:17:00;;;;;;;6.20;0.60;;;;;;;7.28;100.00;100468.98;105470;1254;60458;-47
2023/05/07 00:19:27;;;;;;;2.70;0.70;;;;;;;7.27;100.00;100466.67;105443;1257;60574;-49
2023/05/07 00:21:55;;;;;;;1.20;0.70;;;;;;;7.26;100.00;100473.13;105478;1251;72575;-47
2023/05/07 00:24:22;;;;;;;1.30;0.70;;;;;;;7.24;100.00;100473.88;105771;1254;68931;-47
2023/05/07 00:26:49;;;;;;;1.30;0.70;;;;;;;7.21;100.00;100477.89;105624;1256;72546;-47
2023/05/07 00:29:16;;;;;;;0.90;0.60;;;;;;;7.20;100.00;100478.97;105578;1257;60443;-46
2023/05/07 00:31:42;;;;;;;2.70;0.70;;;;;;;7.21;100.00;100480.04;105468;1257;61498;-49
2023/05/07 00:34:09;;;;;;;2.10;0.60;;;;;;;7.21;100.00;100482.54;105551;1263;75878;-46
2023/05/07 00:36:36;;;;;;;1.30;0.70;;;;;;;7.20;100.00;100484.88;105405;1253;68175;-47
2023/05/07 00:39:03;;;;;;;1.70;0.60;;;;;;;7.19;100.00;100484.53;105439;1255;73530;-46
2023/05/07 00:41:33;;;;;;;1.30;0.50;;;;;;;7.18;100.00;100487.06;106647;1257;61616;-47
2023/05/07 00:44:02;;;;;;;2.10;0.70;;;;;;;7.16;100.00;100489.25;105487;1252;60487;-47
2023/05/07 00:46:30;;;;;;;1.30;0.50;;;;;;;7.14;100.00;100489.48;105823;1256;75884;-47
2023/05/07 00:48:57;;;;;;;0.90;0.60;;;;;;;7.13;100.00;100492.19;105146;1251;70777;-48
2023/05/07 00:51:24;;;;;;;1.20;0.50;;;;;;;7.12;100.00;100489.52;105422;1257;75245;-48
2023/05/07 00:53:51;;;;;;;2.90;0.70;;;;;;;7.12;100.00;100488.09;109244;1251;60568;-47
2023/05/07 00:56:18;;;;;;;2.30;0.50;;;;;;;7.11;100.00;100489.89;109077;1257;60249;-47
2023/05/07 00:58:44;;;;;;;4.60;0.50;;;;;;;7.11;100.00;100494.00;109194;1251;74667;-48
2023/05/07 01:01:11;;;;;;;1.30;0.60;;;;;;;7.09;100.00;100494.21;106281;1259;67909;-44
2023/05/07 01:03:38;;;;;;;0.80;0.50;;;;;;;7.08;100.00;100495.48;105640;1257;72583;-47
2023/05/07 01:06:05;;;;;;;2.00;0.60;;;;;;;7.08;100.00;100499.06;109091;1251;60131;-47
2023/05/07 01:08:34;;;;;;;2.80;0.80;;;;;;;7.06;100.00;100499.98;109060;1254;59212;-47
2023/05/07 01:11:01;;;;;;;3.60;0.60;;;;;;;7.06;100.00;100496.25;109145;1254;73832;-47
2023/05/07 01:13:28;;;;;;;3.10;0.70;;;;;;;7.05;100.00;100497.88;106112;1259;70109;-47
2023/05/07 01:15:55;;;;;;;1.30;0.60;;;;;;;7.05;100.00;100497.71;105414;1251;74836;-46
2023/05/07 01:18:22;;;;;;;2.20;0.60;;;;;;;7.06;100.00;100498.04;105567;1252;61045;-47
2023/05/07 01:20:49;;;;;;;2.20;0.60;;;;;;;7.06;100.00;100492.69;105367;1260;60437;-46
2023/05/07 01:23:16;;;;;;;1.00;0.60;;;;;;;7.06;100.00;100492.15;108935;1251;74464;-48
2023/05/07 01:25:43;;;;;;;2.30;0.60;;;;;;;7.06;100.00;100494.67;109192;1251;71271;-46
2023/05/07 01:28:10;;;;;;;1.00;0.60;;;;;;;7.05;100.00;100499.51;109035;1260;73176;-47
2023/05/07 01:30:37;;;;;;;2.20;0.60;;;;;;;7.04;100.00;100504.70;109016;1254;59416;-46
2023/05/07 01:33:10;;;;;;;2.30;0.60;;;;;;;7.04;100.00;100507.20;109017;1253;62271;-46
2023/05/07 01:35:42;;;;;;;1.30;0.60;;;;;;;7.03;100.00;100508.10;108943;1251;118320;-46
2023/05/07 01:39:39;;;;;;;3.60;0.60;;;;;;;7.04;100.00;100505.73;102180;1295;599786;-47
2023/05/07 01:42:05;;;;;;;2.40;0.60;;;;;;;7.02;100.00;100520.63;105242;1270;59418;-49
2023/05/07 01:44:32;;;;;;;1.30;0.60;;;;;;;7.01;100.00;100522.23;104457;1271;61422;-47
2023/05/07 01:46:59;;;;;;;3.10;0.70;;;;;;;7.00;100.00;100523.32;104333;1266;71771;-48
2023/05/07 01:49:26;;;;;;;0.80;0.50;;;;;;;7.00;100.00;100522.44;104393;1266;69980;-48
2023/05/07 01:51:52;;;;;;;2.20;0.60;;;;;;;7.00;100.00;100522.98;104314;1271;73901;-48
2023/05/07 01:54:20;;;;;;;2.10;0.60;;;;;;;6.98;100.00;100524.79;104560;1273;163447;-46
2023/05/07 01:56:48;;;;;;;1.10;0.50;;;;;;;6.97;100.00;100532.14;108167;1268;59653;-48
2023/05/07 01:59:16;;;;;;;2.50;0.60;;;;;;;6.95;100.00;100532.73;106538;1268;71978;-46
2023/05/07 02:01:42;;;;;;;3.40;0.50;;;;;;;6.95;100.00;100537.38;104668;1269;67823;-49
2023/05/07 02:04:10;;;;;;;1.00;0.50;;;;;;;6.95;100.00;100532.20;104515;1270;75088;-47
2023/05/07 02:06:37;;;;;;;1.90;0.50;;;;;;;6.94;100.00;100529.90;104629;1269;61750;-47
2023/05/07 02:09:05;;;;;;;4.60;0.50;;;;;;;6.94;100.00;100529.36;105136;1263;62665;-46
2023/05/07 02:11:33;;;;;;;0.80;0.50;;;;;;;6.93;100.00;100534.36;104742;1264;73012;-48
2023/05/07 02:14:06;;;;;;;2.20;0.50;;;;;;;6.93;100.00;100531.70;104980;1271;68061;-46
2023/05/07 02:16:49;;;;;;;1.90;0.50;;;;;;;6.93;100.00;100534.02;104756;1267;73430;-49
2023/05/07 02:19:41;;;;;;;5.60;0.50;;;;;;;6.90;100.00;100531.95;104748;1271;61475;-48
2023/05/07 02:22:09;;;;;;;0.80;0.50;;;;;;;6.88;100.00;100534.30;105211;1262;62521;-47
2023/05/07 02:24:36;;;;;;;1.00;0.50;;;;;;;6.87;100.00;100541.27;105231;1261;73622;-46
2023/05/07 02:27:03;;;;;;;5.60;0.50;;;;;;;6.87;100.00;100551.10;105179;1261;70035;-47
2023/05/07 02:29:30;;;;;;;1.50;0.50;;;;;;;6.87;100.00;100555.21;105115;1257;75274;-46
2023/05/07 02:31:56;;;;;;;0.80;0.50;;;;;;;6.86;100.00;100547.73;105069;1265;61040;-45
2023/05/07 02:34:24;;;;;;;0.70;0.50;;;;;;;6.84;100.00;100545.98;105204;1270;62311;-46
2023/05/07 02:36:50;;;;;;;2.30;0.90;;;;;;;6.83;100.00;100556.34;105070;1264;72309;-45
2023/05/07 02:39:20;;;;;;;2.20;0.50;;;;;;;6.81;100.00;100562.79;105241;1261;69978;-45
2023/05/07 02:41:47;;;;;;;2.60;0.60;;;;;;;6.81;100.00;100566.18;105181;1262;71815;-47
2023/05/07 02:44:14;;;;;;;0.90;0.50;;;;;;;6.81;100.00;100567.42;105099;1264;59516;-49
2023/05/07 02:46:41;;;;;;;0.80;0.50;;;;;;;6.81;100.00;100564.92;105108;1263;59584;-46
2023/05/07 02:49:09;;;;;;;0.80;0.50;;;;;;;6.82;100.00;100566.87;105262;1261;75667;-47
2023/05/07 02:51:36;;;;;;;0.90;0.50;;;;;;;6.82;100.00;100567.06;105065;1257;66527;-47
2023/05/07 02:54:06;;;;;;;0.80;0.50;;;;;;;6.81;100.00;100569.92;105098;1263;73253;-46
2023/05/07 02:56:33;;;;;;;1.40;0.50;;;;;;;6.82;100.00;100573.83;106754;1262;60936;-43
2023/05/07 02:59:00;;;;;;;2.50;0.50;;;;;;;6.81;100.00;100571.88;104989;1257;62227;-44
2023/05/07 03:01:29;;;;;;;2.40;0.70;;;;;;;6.80;100.00;100575.11;105193;1263;75316;-45
2023/05/07 03:04:05;;;;;;;0.60;0.40;;;;;;;6.80;100.00;100576.54;106263;1263;67411;-47
2023/05/07 03:06:32;;;;;;;0.90;0.50;;;;;;;6.81;100.00;100579.39;105168;1262;73386;-48
2023/05/07 03:08:59;;;;;;;0.70;0.40;;;;;;;6.81;100.00;100582.95;105120;1265;61375;-45
2023/05/07 03:11:26;;;;;;;1.30;0.50;;;;;;;6.80;100.00;100585.98;104900;1257;60284;-47
2023/05/07 03:13:52;;;;;;;1.00;0.70;;;;;;;6.80;100.00;100585.28;105112;1263;74880;-47
2023/05/07 03:16:19;;;;;;;1.80;0.50;;;;;;;6.81;100.00;100588.13;105034;1262;68218;-48
2023/05/07 03:18:46;;;;;;;3.10;0.40;;;;;;;6.80;100.00;100590.83;105641;1260;75848;-46
2023/05/07 03:21:13;;;;;;;1.10;0.60;;;;;;;6.79;100.00;100590.33;105095;1263;59615;-44
2023/05/07 03:23:40;;;;;;;2.30;0.60;;;;;;;6.78;100.00;100588.91;105591;1260;59903;-47
2023/05/07 03:26:07;;;;;;;1.00;0.60;;;;;;;6.77;100.00;100586.08;105032;1262;75111;-46
2023/05/07 03:28:34;;;;;;;0.80;0.50;;;;;;;6.76;100.00;100586.09;104982;1264;66507;-48
2023/05/07 03:31:02;;;;;;;5.70;0.70;;;;;;;6.75;100.00;100589.84;105139;1260;73153;-45
2023/05/07 03:33:29;;;;;;;2.00;0.60;;;;;;;6.74;100.00;100592.90;105062;1260;59800;-45
2023/05/07 03:35:56;;;;;;;0.90;0.60;;;;;;;6.74;100.00;100592.19;104946;1263;62053;-46
2023/05/07 03:38:23;;;;;;;1.00;0.60;;;;;;;6.73;100.00;100593.83;105393;1262;74384;-47
2023/05/07 03:40:50;;;;;;;0.60;0.50;;;;;;;6.72;100.00;100597.23;105159;1261;70498;-47
2023/05/07 03:43:17;;;;;;;0.90;0.50;;;;;;;6.72;100.00;100598.51;105172;1263;73089;-47
2023/05/07 03:45:48;;;;;;;0.70;0.50;;;;;;;6.72;100.00;100594.02;104981;1257;60626;-45
2023/05/07 03:48:19;;;;;;;0.90;0.50;;;;;;;6.73;100.00;100592.38;108693;1257;62799;-47
2023/05/07 03:50:47;;;;;;;1.30;0.60;;;;;;;6.74;100.00;100592.19;108722;1256;72835;-47
2023/05/07 03:53:15;;;;;;;0.80;0.50;;;;;;;6.75;100.00;100596.46;108655;1257;68634;-48
2023/05/07 03:55:41;;;;;;;0.60;0.40;;;;;;;6.76;100.00;100598.77;108724;1263;70509;-47
2023/05/07 03:58:08;;;;;;;1.60;0.60;;;;;;;6.76;100.00;100601.25;108563;1257;58589;-48
2023/05/07 04:00:38;;;;;;;3.80;0.50;;;;;;;6.76;100.00;100601.79;108709;1257;59074;-47
2023/05/07 04:03:11;;;;;;;0.80;0.50;;;;;;;6.78;100.00;100605.69;108660;1257;72905;-48
2023/05/07 04:05:38;;;;;;;0.90;0.40;;;;;;;6.79;100.00;100604.25;108604;1258;70100;-48
2023/05/07 04:08:05;;;;;;;1.30;0.60;;;;;;;6.80;100.00;100604.74;108660;1258;74374;-49
2023/05/07 04:10:37;;;;;;;1.30;0.90;;;;;;;6.80;100.00;100605.29;108721;1257;61984;-49
2023/05/07 04:13:07;;;;;;;1.00;0.50;;;;;;;6.79;100.00;100606.21;108665;1257;61953;-49
2023/05/07 04:15:35;;;;;;;0.70;0.50;;;;;;;6.78;100.00;100607.28;108680;1257;71447;-48
2023/05/07 04:18:02;;;;;;;5.90;0.60;;;;;;;6.80;100.00;100604.77;108645;1257;69323;-47
2023/05/07 04:20:29;;;;;;;2.30;0.50;;;;;;;6.78;100.00;100601.23;108630;1257;73766;-47
2023/05/07 04:23:00;;;;;;;1.00;0.40;;;;;;;6.78;100.00;100593.91;108676;1259;58742;-48
2023/05/07 04:25:27;;;;;;;1.90;0.50;;;;;;;6.78;100.00;100591.23;108661;1261;59396;-47
2023/05/07 04:27:58;;;;;;;0.60;0.40;;;;;;;6.77;100.00;100586.96;108435;1258;74652;-48
2023/05/07 04:30:26;;;;;;;2.10;0.50;;;;;;;6.75;100.00;100585.20;107065;1261;67017;-47
2023/05/07 04:32:53;;;;;;;1.40;0.50;;;;;;;6.76;100.00;100581.11;105090;1263;74393;-47
2023/05/07 04:35:20;;;;;;;2.80;0.50;;;;;;;6.77;100.00;100572.89;108630;1257;60686;-48
2023/05/07 04:37:48;;;;;;;0.70;0.50;;;;;;;6.77;100.00;100573.95;107034;1257;62800;-47
2023/05/07 04:40:16;;;;;;;1.20;0.40;;;;;;;6.77;100.00;100572.52;104429;1257;74473;-47
2023/05/07 04:42:43;;;;;;;1.70;0.60;;;;;;;6.78;100.00;100571.44;104594;1257;69373;-48
2023/05/07 04:45:10;;;;;;;0.60;0.50;;;;;;;6.78;100.00;100573.77;105040;1262;74729;-49
2023/05/07 04:47:37;;;;;;;2.80;0.40;;;;;;;6.78;100.00;100577.16;105292;1263;60634;-45
2023/05/07 04:50:05;;;;;;;2.10;0.50;;;;;;;6.77;100.00;100573.77;104415;1264;60256;-45
2023/05/07 04:52:33;;;;;;;0.80;0.60;;;;;;;6.75;100.00;100572.37;106920;1260;73957;-48
2023/05/07 04:55:00;;;;;;;2.10;0.50;;;;;;;6.75;100.00;100570.23;104687;1258;68185;-47
2023/05/07 04:57:29;;;;;;;0.70;0.40;;;;;;;6.76;100.00;100567.91;104475;1263;73862;-46
2023/05/07 04:59:56;;;;;;;0.90;0.40;;;;;;;6.76;100.00;100567.89;104934;1260;60280;-47
2023/05/07 05:02:23;;;;;;;4.90;0.50;;;;;;;6.78;100.00;100563.77;104923;1258;59592;-46
2023/05/07 05:04:50;;;;;;;0.90;0.50;;;;;;;6.79;100.00;100563.39;104802;1263;73142;-45
2023/05/07 05:07:17;;;;;;;1.00;0.40;;;;;;;6.79;100.00;100562.32;104876;1258;69300;-45
2023/05/07 05:09:44;;;;;;;0.70;0.50;;;;;;;6.80;100.00;100561.21;104973;1258;74464;-46
2023/05/07 05:12:11;;;;;;;0.70;0.40;;;;;;;6.81;100.00;100559.77;104924;1264;60408;-46
2023/05/07 05:14:38;;;;;;;0.60;0.50;;;;;;;6.82;100.00;100559.20;104830;1257;62724;-45
2023/05/07 05:17:06;;;;;;;0.60;0.40;;;;;;;6.83;100.00;100562.92;105066;1257;74597;-48
2023/05/07 05:19:35;;;;;;;2.80;0.70;;;;;;;6.84;100.00;100554.36;105419;1257;68184;-48
2023/05/07 05:22:03;;;;;;;4.00;0.50;;;;;;;6.85;100.00;100550.59;104939;1258;73633;-48
2023/05/07 05:24:31;;;;;;;1.70;0.60;;;;;;;6.88;100.00;100551.98;107232;1259;61483;-44
2023/05/07 05:27:01;;;;;;;1.10;0.50;;;;;;;6.90;100.00;100550.48;105085;1263;59953;-48
2023/05/07 05:29:28;;;;;;;1.80;0.50;;;;;;;6.91;100.00;100548.14;105184;1261;73144;-45
2023/05/07 05:31:55;;;;;;;0.90;0.40;;;;;;;6.92;100.00;100548.48;104902;1265;67974;-47
2023/05/07 05:34:23;;;;;;;1.00;0.50;;;;;;;6.94;100.00;100551.13;105062;1257;73417;-44
2023/05/07 05:36:50;;;;;;;1.50;0.60;;;;;;;6.97;100.00;100547.67;105033;1261;59574;-49
2023/05/07 05:39:18;;;;;;;2.30;0.60;;;;;;;7.00;100.00;100548.30;106556;1262;61264;-45
2023/05/07 05:41:45;;;;;;;1.30;0.50;;;;;;;7.04;100.00;100549.85;105121;1258;74101;-47
2023/05/07 05:44:12;;;;;;;1.50;0.50;;;;;;;7.08;100.00;100544.39;105089;1257;68996;-46
2023/05/07 05:46:40;;;;;;;3.60;0.70;;;;;;;7.13;100.00;100539.99;105272;1263;74854;-47
2023/05/07 05:49:07;;;;;;;2.20;0.60;;;;;;;7.20;100.00;100540.02;104958;1260;60661;-44
2023/05/07 05:51:34;;;;;;;2.50;0.60;;;;;;;7.28;100.00;100543.97;105068;1261;60544;-47
2023/05/07 05:54:00;;;;;;;2.30;0.60;;;;;;;7.34;100.00;100542.21;104902;1257;74354;-44
2023/05/07 05:56:27;;;;;;;5.40;0.70;;;;;;;7.40;100.00;100538.34;105635;1257;70807;-43
2023/05/07 05:58:54;;;;;;;6.20;0.60;;;;;;;7.47;100.00;100526.73;105101;1257;70960;-47
2023/05/07 06:01:21;;;;;;;2.50;0.60;;;;;;;7.53;100.00;100523.91;104967;1258;60830;-47
2023/05/07 06:03:49;;;;;;;1.10;0.50;;;;;;;7.59;100.00;100524.30;104839;1262;62231;-46
2023/05/07 06:06:16;;;;;;;1.30;0.40;;;;;;;7.65;100.00;100529.70;105262;1257;73672;-46
2023/05/07 06:08:43;;;;;;;1.00;0.60;;;;;;;7.69;100.00;100530.13;105240;1262;69961;-49
2023/05/07 06:11:12;;;;;;;1.20;0.60;;;;;;;7.75;100.00;100530.18;104925;1258;71163;-49
2023/05/07 06:13:39;;;;;;;1.20;0.60;;;;;;;7.77;100.00;100531.36;106023;1263;60297;-46
2023/05/07 06:16:06;;;;;;;0.90;0.50;;;;;;;7.80;100.00;100534.19;105134;1267;60509;-48
2023/05/07 06:18:35;;;;;;;0.80;0.40;;;;;;;7.80;100.00;100539.35;105317;1262;73926;-45
2023/05/07 06:21:02;;;;;;;2.00;0.50;;;;;;;7.81;100.00;100537.37;104910;1263;67468;-46
2023/05/07 06:23:30;;;;;;;0.70;0.40;;;;;;;7.82;100.00;100541.45;105486;1262;73866;-48
2023/05/07 06:25:58;;;;;;;1.90;0.50;;;;;;;7.83;100.00;100543.01;105117;1257;61367;-46
2023/05/07 06:28:30;;;;;;;0.90;0.50;;;;;;;7.84;100.00;100540.13;105091;1257;62623;-48
2023/05/07 06:31:11;;;;;;;3.60;0.50;;;;;;;7.86;100.00;100538.48;106663;1263;73769;-46
2023/05/07 06:33:38;;;;;;;3.80;0.70;;;;;;;7.87;100.00;100538.27;106121;1260;69300;-44
2023/05/07 06:36:05;;;;;;;1.90;0.30;;;;;;;7.89;100.00;100536.43;104474;1264;73491;-48
2023/05/07 06:38:32;;;;;;;1.00;0.40;;;;;;;7.94;100.00;100538.09;105901;1260;59843;-46
2023/05/07 06:40:59;;;;;;;0.90;0.40;;;;;;;7.97;100.00;100542.66;104877;1264;61651;-48
2023/05/07 06:43:26;;;;;;;3.30;0.40;;;;;;;7.99;100.00;100540.83;105074;1263;73529;-49
2023/05/07 06:45:55;;;;;;;1.60;0.40;;;;;;;8.04;100.00;100542.33;105098;1260;70154;-47
2023/05/07 06:48:22;;;;;;;1.10;0.40;;;;;;;8.06;100.00;100546.73;105171;1260;72499;-47
2023/05/07 06:50:57;;;;;;;0.80;0.20;;;;;;;8.09;100.00;100546.84;108630;1257;60570;-48
2023/05/07 06:53:25;;;;;;;0.90;0.40;;;;;;;8.13;100.00;100548.86;108757;1254;61686;-47
2023/05/07 06:55:52;;;;;;;1.20;0.30;;;;;;;8.18;100.00;100549.27;109000;1254;74798;-47
2023/05/07 06:58:19;;;;;;;0.40;0.30;;;;;;;8.23;100.00;100545.58;109003;1254;66948;-46
2023/05/07 07:00:47;;;;;;;0.20;0.20;;;;;;;8.28;100.00;100542.92;108847;1254;74149;-47
2023/05/07 07:03:13;;;;;;;0.50;0.20;;;;;;;8.34;100.00;100540.48;108866;1255;59385;-47
2023/05/07 07:05:41;;;;;;;0.80;0.30;;;;;;;8.41;100.00;100539.05;106842;1256;62491;-46
2023/05/07 07:08:08;;;;;;;3.30;0.30;;;;;;;8.47;100.00;100535.50;108861;1253;75797;-46
2023/05/07 07:10:36;;;;;;;0.30;0.20;;;;;;;8.54;100.00;100537.45;107467;1254;68044;-49
2023/05/07 07:13:02;;;;;;;3.30;0.30;;;;;;;8.61;100.00;100534.20;105184;1258;72576;-48
2023/05/07 07:15:29;;;;;;;0.40;0.30;;;;;;;8.69;100.00;100532.02;105232;1260;61603;-47
2023/05/07 07:17:57;;;;;;;0.40;0.30;;;;;;;8.78;100.00;100525.50;105028;1254;60695;-49
2023/05/07 07:20:24;;;;;;;0.70;0.40;;;;;;;8.84;100.00;100527.64;105214;1260;76099;-48
2023/05/07 07:22:51;;;;;;;1.70;0.30;;;;;;;8.90;100.00;100531.58;105063;1263;67763;-44
2023/05/07 07:25:18;;;;;;;0.80;0.20;;;;;;;8.95;100.00;100536.08;105309;1260;73973;-48
2023/05/07 07:27:45;;;;;;;0.30;0.20;;;;;;;8.96;100.00;100535.16;104930;1257;61917;-44
2023/05/07 07:30:12;;;;;;;0.40;0.20;;;;;;;8.98;100.00;100529.58;104818;1255;62199;-49
2023/05/07 07:32:40;;;;;;;1.00;0.20;;;;;;;8.99;100.00;100527.19;104624;1256;75711;-46
2023/05/07 07:35:08;;;;;;;0.60;0.30;;;;;;;9.01;100.00;100529.80;104796;1254;70611;-50
2023/05/07 07:37:35;;;;;;;0.80;0.20;;;;;;;9.01;100.00;100526.59;104806;1254;73238;-44
2023/05/07 07:40:03;;;;;;;2.70;0.10;;;;;;;9.01;100.00;100527.31;104739;1256;60661;-45
2023/05/07 07:42:31;;;;;;;0.30;0.20;;;;;;;9.02;100.00;100525.84;105930;1254;61460;-46
2023/05/07 07:44:58;;;;;;;0.60;0.30;;;;;;;9.03;100.00;100529.39;104952;1255;73042;-49
2023/05/07 07:47:26;;;;;;;3.50;0.20;;;;;;;9.03;100.00;100529.22;105079;1254;66091;-48
2023/05/07 07:49:53;;;;;;;2.30;0.20;;;;;;;9.05;100.00;100534.87;105019;1253;74991;-50
2023/05/07 07:52:19;;;;;;;0.30;0.20;;;;;;;9.05;100.00;100531.13;104719;1254;60665;-48
2023/05/07 07:54:46;;;;;;;1.40;0.20;;;;;;;9.05;100.00;100531.14;105649;1254;62390;-48
2023/05/07 07:57:13;;;;;;;0.20;0.20;;;;;;;9.08;100.00;100529.98;105226;1254;75460;-49
2023/05/07 07:59:42;;;;;;;0.60;0.60;;;;;;;9.08;100.00;100531.05;105347;1254;70185;-47
2023/05/07 08:02:10;;;;;;;1.50;0.30;;;;;;;9.09;100.00;100532.45;105200;1254;73907;-48
2023/05/07 08:04:37;;;;;;;3.10;0.20;;;;;;;9.09;100.00;100532.45;105232;1253;63352;-49
2023/05/07 08:07:05;;;;;;;1.50;0.20;;;;;;;9.10;100.00;100536.88;105132;1256;60448;-49
2023/05/07 08:09:34;;;;;;;2.80;0.20;;;;;;;9.14;100.00;100538.91;105265;1254;73288;-48
2023/05/07 08:12:01;;;;;;;3.20;0.20;;;;;;;9.18;100.00;100537.36;105912;1253;68176;-48
2023/05/07 08:14:28;;;;;;;0.90;0.20;;;;;;;9.23;100.00;100536.67;106974;1257;73944;-49
2023/05/07 08:16:56;;;;;;;0.40;0.20;;;;;;;9.28;100.00;100534.54;105133;1260;60427;-48
2023/05/07 08:19:23;;;;;;;0.30;0.20;;;;;;;9.34;100.00;100534.00;108778;1253;61661;-50
2023/05/07 08:21:50;;;;;;;0.40;0.30;;;;;;;9.38;100.00;100533.69;108823;1253;74200;-49
2023/05/07 08:24:17;;;;;;;1.70;0.30;;;;;;;9.42;100.00;100530.38;106451;1253;70135;-50
2023/05/07 08:26:45;;;;;;;0.50;0.30;;;;;;;9.44;100.00;100524.56;106955;1254;73948;-50
2023/05/07 08:29:13;;;;;;;0.90;0.30;;;;;;;9.46;100.00;100520.35;106715;1257;62448;-48
2023/05/07 08:31:40;;;;;;;3.30;0.70;;;;;;;9.50;100.00;100521.15;105080;1256;60563;-48
2023/05/07 08:34:07;;;;;;;0.70;0.40;;;;;;;9.54;100.00;100520.84;104339;1254;75044;-48
2023/05/07 08:36:37;;;;;;;2.20;0.30;;;;;;;9.58;100.00;100520.35;106115;1257;71425;-50
2023/05/07 08:39:04;;;;;;;2.50;0.30;;;;;;;9.61;100.00;100520.45;105337;1258;74891;-47
2023/05/07 08:41:31;;;;;;;0.20;0.10;;;;;;;9.61;100.00;100522.25;105491;1254;62443;-47
2023/05/07 08:43:59;;;;;;;0.80;0.20;;;;;;;9.61;100.00;100524.36;105345;1253;61924;-49
2023/05/07 08:46:26;;;;;;;0.30;0.10;;;;;;;9.60;100.00;100527.11;105282;1257;74906;-48
2023/05/07 08:48:54;;;;;;;1.70;0.30;;;;;;;9.58;100.00;100528.44;106362;1253;70254;-51
2023/05/07 08:51:21;;;;;;;0.40;0.10;;;;;;;9.56;100.00;100524.91;105161;1258;75007;-48
2023/05/07 08:53:49;;;;;;;0.60;0.20;;;;;;;9.55;100.00;100525.11;108527;1253;62016;-47
2023/05/07 08:56:21;;;;;;;2.20;0.20;;;;;;;9.55;100.00;100527.44;105670;1259;60365;-48
2023/05/07 08:58:49;;;;;;;3.00;0.10;;;;;;;9.56;100.00;100527.60;105266;1254;74889;-50
2023/05/07 09:01:16;;;;;;;1.10;0.20;;;;;;;9.57;100.00;100531.85;105513;1255;68651;-49
2023/05/07 09:03:45;;;;;;;0.20;0.20;;;;;;;9.59;100.00;100529.13;105254;1258;73204;-47
2023/05/07 09:06:13;;;;;;;2.60;0.30;;;;;;;9.60;100.00;100522.26;105467;1256;61655;-50
2023/05/07 09:08:40;;;;;;;1.00;0.20;;;;;;;9.63;100.00;100524.12;105461;1254;62889;-47
2023/05/07 09:11:07;;;;;;;0.40;0.20;;;;;;;9.63;100.00;100528.77;105487;1259;76162;-49
2023/05/07 09:13:36;;;;;;;1.50;0.30;;;;;;;9.60;100.00;100528.00;105416;1254;68862;-51
2023/05/07 09:16:11;;;;;;;0.30;0.30;;;;;;;9.60;100.00;100532.31;105406;1258;70928;-49
2023/05/07 09:18:43;;;;;;;0.80;0.30;;;;;;;9.60;100.00;100533.01;105798;1257;61277;-50
2023/05/07 09:21:16;;;;;;;0.50;0.30;;;;;;;9.62;100.00;100540.45;105693;1254;60544;-49
2023/05/07 09:23:44;;;;;;;2.40;0.30;;;;;;;9.65;100.00;100538.77;107558;1258;76109;-46
2023/05/07 09:26:14;;;;;;;0.50;0.30;;;;;;;9.67;100.00;100539.61;105338;1256;67232;-50
2023/05/07 09:28:41;;;;;;;3.10;0.60;;;;;;;9.66;100.00;100544.46;105436;1260;75454;-49
2023/05/07 09:31:10;;;;;;;2.60;0.40;;;;;;;9.66;100.00;100545.36;105359;1259;62431;-49
2023/05/07 09:33:37;;;;;;;2.90;0.70;;;;;;;9.66;100.00;100544.48;105305;1254;62661;-49
2023/05/07 09:36:07;;;;;;;2.10;0.80;;;;;;;9.67;100.00;100548.04;105216;1259;75630;-48
2023/05/07 09:38:34;;;;;;;1.30;0.50;;;;;;;9.69;100.00;100537.92;108759;1253;70341;-49
2023/05/07 09:41:05;;;;;;;1.70;0.80;;;;;;;9.71;100.00;100540.35;108724;1254;74030;-50
2023/05/07 09:43:36;;;;;;;6.90;1.40;;;;;;;9.72;100.00;100536.73;108866;1255;59349;-50
2023/05/07 09:46:06;;;;;;;1.40;0.70;;;;;;;9.73;100.00;100539.02;108793;1258;59191;-50
2023/05/07 09:48:36;;;;;;;5.20;1.70;;;;;;;9.76;100.00;100532.15;108909;1255;77563;-50
2023/05/07 09:51:03;;;;;;;3.10;0.80;;;;;;;9.79;100.00;100524.67;108760;1253;69087;-50
2023/05/07 09:53:31;;;;;;;7.50;0.90;;;;;;;9.81;100.00;100523.52;108926;1254;74026;-51
2023/05/07 09:55:58;;;;;;;2.60;0.90;;;;;;;9.86;100.00;100520.52;108924;1254;61167;-50
2023/05/07 09:58:25;;;;;;;1.60;0.80;;;;;;;9.92;100.00;100524.64;108936;1253;60175;-49
2023/05/07 10:00:53;;;;;;;1.30;0.50;;;;;;;9.94;100.00;100523.67;108942;1255;74558;-50
2023/05/07 10:03:20;;;;;;;1.10;0.40;;;;;;;9.93;100.00;100526.93;108852;1254;68158;-51
2023/05/07 10:05:54;;;;;;;0.60;0.30;;;;;;;9.93;100.00;100528.89;108844;1253;74888;-50
2023/05/07 10:08:21;;;;;;;0.50;0.30;;;;;;;9.96;100.00;100527.71;108860;1254;62946;-50
2023/05/07 10:10:51;;;;;;;0.30;0.20;;;;;;;9.96;100.00;100520.73;107468;1254;62982;-47
2023/05/07 10:13:21;;;;;;;0.60;0.30;;;;;;;9.96;100.00;100514.25;105253;1256;74604;-48
2023/05/07 10:15:50;;;;;;;2.70;0.30;;;;;;;10.00;100.00;100509.11;108319;1256;68269;-48
2023/05/07 10:18:17;;;;;;;7.80;0.50;;;;;;;10.06;100.00;100499.20;105257;1254;74736;-48
2023/05/07 10:20:46;;;;;;;1.90;0.40;;;;;;;10.15;100.00;100497.29;105201;1254;62574;-49
2023/05/07 10:23:15;;;;;;;0.40;0.30;;;;;;;10.24;100.00;100489.80;105246;1260;61000;-49
2023/05/07 10:25:43;;;;;;;4.10;0.90;;;;;;;10.28;100.00;100497.08;108708;1253;75965;-50
2023/05/07 10:28:16;;;;;;;3.10;0.50;;;;;;;10.29;100.00;100491.98;106077;1253;68755;-49
2023/05/07 10:31:02;;;;;;;1.00;0.50;;;;;;;10.35;100.00;100488.89;105138;1254;74211;-50
2023/05/07 10:33:34;;;;;;;2.80;0.40;;;;;;;10.44;100.00;100488.02;105394;1260;60437;-49
2023/05/07 10:36:04;;;;;;;1.50;0.40;;;;;;;10.52;100.00;100494.73;105652;1253;60461;-48
2023/05/07 10:38:31;;;;;;;1.60;0.20;;;;;;;10.59;100.00;100491.05;106222;1262;73727;-49
2023/05/07 10:40:59;;;;;;;0.40;0.10;;;;;;;10.59;100.00;100493.76;104974;1256;70055;-48
2023/05/07 10:43:26;;;;;;;3.60;0.80;;;;;;;10.60;100.00;100494.78;105371;1254;73615;-49
2023/05/07 10:46:14;;;;;;;1.20;0.50;;;;;;;10.59;100.00;100487.81;105166;1260;62576;-49
2023/05/07 10:49:00;;;;;;;3.20;0.40;;;;;;;10.58;100.00;100475.64;105269;1256;61861;-49
2023/05/07 10:51:30;;;;;;;0.50;0.30;;;;;;;10.58;100.00;100479.43;107898;1256;76161;-51
2023/05/07 10:54:09;;;;;;;0.50;0.20;;;;;;;10.56;100.00;100473.40;105426;1254;67309;-51
2023/05/07 10:56:37;;;;;;;0.50;0.20;;;;;;;10.56;100.00;100471.60;105641;1260;74108;-50
2023/05/07 10:59:20;;;;;;;1.90;0.20;;;;;;;10.57;100.00;100474.08;105495;1254;62697;-50
2023/05/07 11:01:52;;;;;;;0.70;0.30;;;;;;;10.57;100.00;100478.20;105346;1254;62744;-49
2023/05/07 11:04:27;;;;;;;1.80;0.40;;;;;;;10.60;100.00;100486.38;105524;1255;74766;-50
2023/05/07 11:07:26;;;;;;;1.50;0.60;;;;;;;10.60;100.00;100484.92;105096;1254;69746;-50
2023/05/07 11:10:01;;;;;;;3.60;0.30;;;;;;;10.59;100.00;100479.95;105302;1260;73246;-50
2023/05/07 11:12:43;;;;;;;1.80;0.30;;;;;;;10.59;100.00;100485.12;105327;1257;62201;-50
2023/05/07 11:15:17;;;;;;;0.90;0.30;;;;;;;10.62;100.00;100494.21;105147;1254;62245;-48
2023/05/07 11:17:54;;;;;;;2.20;0.40;;;;;;;10.64;100.00;100502.54;105099;1260;75913;-48
2023/05/07 11:20:51;;;;;;;8.50;2.40;;;;;;;10.63;100.00;100502.42;107001;1259;70183;-50
2023/05/07 11:23:35;;;;;;;8.00;1.30;;;;;;;10.56;100.00;100500.88;105282;1258;74032;-50
2023/05/07 11:26:20;;;;;;;11.10;2.50;;;;;;;10.52;100.00;100494.20;105755;1256;60515;-48